Time;durP1;ratioP1;P1;durP2;ratioP2;P2;SDS_P1;SDS_P2;PMS_P1;PMS_P2;Temp;Humidity;BMP_temperature;BMP_pressure;BME280_temperature;BME280_humidity;BME280_pressure;Samples;Min_cycle;Max_cycle;Signal;HPM_P1;HPM_P2
2024/01/28 00:02:22;;;;;;;1999.90;999.90;;;1.50;99.90;;;;;;5084870;28;20419;-65
2024/01/28 00:04:48;;;;;;;1999.90;999.90;;;1.80;99.90;;;;;;5086705;28;20414;-66
2024/01/28 00:07:16;;;;;;;1999.90;999.90;;;1.30;99.90;;;;;;5076658;28;20923;-63
2024/01/28 00:09:43;;;;;;;1999.90;999.90;;;1.40;99.90;;;;;;5079947;28;20414;-64
2024/01/28 00:12:10;;;;;;;1999.90;999.90;;;1.30;99.90;;;;;;5081728;28;20418;-65
2024/01/28 00:14:36;;;;;;;1999.90;999.90;;;1.30;99.90;;;;;;5085564;28;20414;-65
2024/01/28 00:17:03;;;;;;;1999.90;999.90;;;1.60;99.90;;;;;;5072001;28;20893;-66
2024/01/28 00:19:30;;;;;;;1999.90;999.90;;;1.20;99.90;;;;;;5080216;28;20407;-63
2024/01/28 00:21:57;;;;;;;1999.90;999.90;;;1.20;99.90;;;;;;5082352;28;21092;-66
2024/01/28 00:24:25;;;;;;;1999.90;999.90;;;1.20;99.90;;;;;;5087141;28;20463;-63
2024/01/28 00:26:51;;;;;;;1999.90;999.90;;;1.30;99.90;;;;;;5085663;28;20432;-65
2024/01/28 00:29:19;;;;;;;1999.90;999.90;;;1.30;99.90;;;;;;5084320;28;20421;-66
2024/01/28 00:31:46;;;;;;;1999.90;999.90;;;1.20;99.90;;;;;;5078066;28;20418;-64
2024/01/28 00:34:13;;;;;;;1999.90;999.90;;;1.10;99.90;;;;;;5078767;28;20437;-65
2024/01/28 00:36:39;;;;;;;1999.90;999.90;;;1.60;99.90;;;;;;5083851;28;20417;-65
2024/01/28 00:39:06;;;;;;;1999.90;999.90;;;0.90;99.90;;;;;;5078701;28;20419;-64
2024/01/28 00:41:34;;;;;;;1999.90;999.90;;;1.00;99.90;;;;;;5077375;28;20463;-65
2024/01/28 00:44:01;;;;;;;1999.90;999.90;;;1.50;99.90;;;;;;5079317;28;20489;-66
2024/01/28 00:46:27;;;;;;;1999.90;999.90;;;0.90;99.90;;;;;;5079602;28;20421;-65
2024/01/28 00:48:54;;;;;;;1999.90;999.90;;;1.40;99.90;;;;;;5083761;28;20414;-65
2024/01/28 00:51:21;;;;;;;1999.90;999.90;;;1.40;99.90;;;;;;5073946;28;20483;-64
2024/01/28 00:53:47;;;;;;;1999.90;999.90;;;1.20;99.90;;;;;;5075972;28;20406;-64
2024/01/28 00:56:16;;;;;;;1999.90;999.90;;;0.90;99.90;;;;;;5082013;28;20457;-63
2024/01/28 00:58:44;;;;;;;1999.90;999.90;;;0.90;99.90;;;;;;5084404;28;20439;-63
2024/01/28 01:01:10;;;;;;;1999.90;999.90;;;0.80;99.90;;;;;;5080308;28;20435;-63
2024/01/28 01:03:37;;;;;;;1999.90;999.90;;;1.00;99.90;;;;;;5093387;28;20414;-63
2024/01/28 01:06:05;;;;;;;1999.90;999.90;;;0.90;99.90;;;;;;5077684;28;20432;-66
2024/01/28 01:08:32;;;;;;;1999.90;999.90;;;1.00;99.90;;;;;;5079947;28;20927;-65
2024/01/28 01:11:03;;;;;;;1999.90;999.90;;;0.80;99.90;;;;;;5084185;28;20436;-65
2024/01/28 01:13:30;;;;;;;1999.90;999.90;;;0.80;99.90;;;;;;5086429;28;20906;-64
2024/01/28 01:15:58;;;;;;;1999.90;999.90;;;0.90;99.90;;;;;;5076661;28;20465;-65
2024/01/28 01:18:25;;;;;;;1999.90;999.90;;;0.90;99.90;;;;;;5081360;28;20415;-64
2024/01/28 01:20:51;;;;;;;1999.90;999.90;;;0.80;99.90;;;;;;5083283;28;22169;-65
2024/01/28 01:23:18;;;;;;;1999.90;999.90;;;0.80;99.90;;;;;;5088899;28;20948;-66
2024/01/28 01:25:45;;;;;;;1999.90;999.90;;;0.70;99.90;;;;;;5072134;28;20443;-66
2024/01/28 01:28:11;;;;;;;1999.90;999.90;;;0.90;99.90;;;;;;5078654;28;20415;-65
2024/01/28 01:30:39;;;;;;;1999.90;999.90;;;0.80;99.90;;;;;;5089651;28;20413;-65
2024/01/28 01:33:07;;;;;;;1999.90;999.90;;;1.00;99.90;;;;;;5086151;28;20752;-64
2024/01/28 01:35:34;;;;;;;1999.90;999.90;;;0.30;99.90;;;;;;5086526;28;20431;-65
2024/01/28 01:38:00;;;;;;;1999.90;999.90;;;1.20;99.90;;;;;;5074682;28;20411;-65
2024/01/28 01:40:27;;;;;;;1999.90;999.90;;;0.70;99.90;;;;;;5086569;28;20433;-65
2024/01/28 01:42:54;;;;;;;1999.90;999.90;;;1.10;99.90;;;;;;5084722;28;20414;-64
2024/01/28 01:45:20;;;;;;;1999.90;999.90;;;0.60;99.90;;;;;;5080862;28;20439;-65
2024/01/28 01:47:47;;;;;;;1999.90;999.90;;;0.60;99.90;;;;;;5077829;28;20419;-65
2024/01/28 01:50:16;;;;;;;1999.90;999.90;;;0.60;99.90;;;;;;5086641;28;20911;-66
2024/01/28 01:52:44;;;;;;;1999.90;999.90;;;0.60;99.90;;;;;;5081107;28;20418;-63
2024/01/28 01:55:12;;;;;;;1999.90;999.90;;;0.40;99.90;;;;;;5084947;28;20892;-64
2024/01/28 01:57:42;;;;;;;1999.90;999.90;;;0.70;99.90;;;;;;5087539;28;20502;-62
2024/01/28 02:00:12;;;;;;;1999.90;999.90;;;0.90;99.90;;;;;;5088929;28;20521;-63
2024/01/28 02:02:40;;;;;;;1999.90;999.90;;;0.40;99.90;;;;;;5082584;28;20418;-65
2024/01/28 02:05:07;;;;;;;1999.90;999.90;;;0.40;99.90;;;;;;5089290;28;20487;-64
2024/01/28 02:07:35;;;;;;;1999.90;999.90;;;0.30;99.90;;;;;;5090165;28;20422;-63
2024/01/28 02:10:03;;;;;;;1999.90;999.90;;;0.20;99.90;;;;;;5093007;28;20410;-60
2024/01/28 02:12:30;;;;;;;1999.90;999.90;;;0.70;99.90;;;;;;5078368;28;20441;-64
2024/01/28 02:15:03;;;;;;;1999.90;999.90;;;0.20;99.90;;;;;;5090328;28;20870;-65
2024/01/28 02:17:30;;;;;;;1999.90;999.90;;;0.20;99.90;;;;;;5094039;28;20405;-65
2024/01/28 02:19:57;;;;;;;1999.90;999.90;;;0.20;99.90;;;;;;5089933;28;20410;-63
2024/01/28 02:22:23;;;;;;;1999.90;999.90;;;0.70;99.90;;;;;;5088578;28;20471;-65
2024/01/28 02:24:52;;;;;;;1999.90;999.90;;;0.30;99.90;;;;;;5081795;28;20889;-65
2024/01/28 02:27:19;;;;;;;1999.90;999.90;;;0.20;99.90;;;;;;5082094;28;20479;-65
2024/01/28 02:29:45;;;;;;;1999.90;999.90;;;0.80;99.90;;;;;;5100972;28;20408;-65
2024/01/28 02:32:16;;;;;;;1999.90;999.90;;;0.70;99.90;;;;;;5096092;28;20437;-65
2024/01/28 02:34:42;;;;;;;1999.90;999.90;;;0.30;99.90;;;;;;5105140;28;20472;-66
2024/01/28 02:37:10;;;;;;;1999.90;999.90;;;0.70;99.90;;;;;;5076850;28;20407;-65
2024/01/28 02:39:37;;;;;;;1999.90;999.90;;;0.90;99.90;;;;;;5089705;28;20475;-65
2024/01/28 02:42:20;;;;;;;1999.90;999.90;;;0.40;99.90;;;;;;5077154;28;20453;-65
2024/01/28 02:44:46;;;;;;;1999.90;999.90;;;0.20;99.90;;;;;;5089816;28;20432;-63
2024/01/28 02:47:13;;;;;;;1999.90;999.90;;;0.20;99.90;;;;;;5092485;28;20491;-65
2024/01/28 02:49:40;;;;;;;1999.90;999.90;;;0.20;99.90;;;;;;5098187;28;20453;-65
2024/01/28 02:52:07;;;;;;;1999.90;999.90;;;0.20;99.90;;;;;;5092129;28;20781;-64
2024/01/28 02:54:34;;;;;;;1999.90;999.90;;;0.40;99.90;;;;;;5093036;28;21052;-64
2024/01/28 02:57:00;;;;;;;1999.90;999.90;;;0.20;99.90;;;;;;5084637;28;20406;-64
2024/01/28 02:59:28;;;;;;;1999.90;999.90;;;0.20;99.90;;;;;;5086545;28;20999;-65
2024/01/28 03:01:55;;;;;;;1999.90;999.90;;;0.20;99.90;;;;;;5110216;28;20781;-65
2024/01/28 03:04:21;;;;;;;1999.90;999.90;;;0.20;99.90;;;;;;5085642;27;20410;-65
2024/01/28 03:06:48;;;;;;;1999.90;999.90;;;0.20;99.90;;;;;;5078095;28;20989;-65
2024/01/28 03:09:14;;;;;;;1999.90;999.90;;;0.10;99.90;;;;;;5082290;28;20424;-65
2024/01/28 03:11:41;;;;;;;1999.90;999.90;;;0.00;99.90;;;;;;5105732;28;20408;-65
2024/01/28 03:14:07;;;;;;;1999.90;999.90;;;0.10;99.90;;;;;;5106092;28;20797;-63
2024/01/28 03:16:35;;;;;;;1999.90;999.90;;;0.10;99.90;;;;;;5089156;28;20406;-65
2024/01/28 03:19:02;;;;;;;1999.90;999.90;;;0.10;99.90;;;;;;5082747;28;20488;-65
2024/01/28 03:21:29;;;;;;;1999.90;999.90;;;0.10;99.90;;;;;;5099787;28;20960;-65
2024/01/28 03:23:56;;;;;;;1999.90;999.90;;;0.10;99.90;;;;;;5090176;28;20444;-64
2024/01/28 03:26:23;;;;;;;1999.90;999.90;;;0.10;99.90;;;;;;5089448;28;20481;-65
2024/01/28 03:28:49;;;;;;;1999.90;999.90;;;0.10;99.90;;;;;;5087260;28;20883;-65
2024/01/28 03:31:18;;;;;;;1999.90;999.90;;;0.20;99.90;;;;;;5091614;28;20410;-65
2024/01/28 03:33:46;;;;;;;1999.90;999.90;;;0.20;99.90;;;;;;5091640;28;20415;-64
2024/01/28 03:36:13;;;;;;;1999.90;999.90;;;0.30;99.90;;;;;;5082929;28;20412;-65
2024/01/28 03:38:40;;;;;;;1999.90;999.90;;;0.20;99.90;;;;;;5089134;28;20414;-63
2024/01/28 03:41:06;;;;;;;1999.90;999.90;;;0.30;99.90;;;;;;5100064;28;20411;-65
2024/01/28 03:43:33;;;;;;;1999.90;999.90;;;0.20;99.90;;;;;;5094994;28;20414;-65
2024/01/28 03:46:00;;;;;;;1999.90;999.90;;;0.30;99.90;;;;;;5085417;28;20420;-66
2024/01/28 03:48:26;;;;;;;1999.90;999.90;;;0.40;99.90;;;;;;5087288;28;20492;-64
2024/01/28 03:50:54;;;;;;;1999.90;999.90;;;0.30;99.90;;;;;;5095382;28;20424;-64
2024/01/28 03:53:21;;;;;;;1999.90;999.90;;;0.30;99.90;;;;;;5097203;28;20406;-65
2024/01/28 03:55:47;;;;;;;1999.90;999.90;;;0.30;99.90;;;;;;5088638;28;20425;-65
2024/01/28 03:58:14;;;;;;;1999.90;999.90;;;0.10;99.90;;;;;;5091511;28;20435;-64
2024/01/28 04:00:40;;;;;;;1999.90;999.90;;;0.10;99.90;;;;;;5088568;28;20406;-63
2024/01/28 04:03:08;;;;;;;1999.90;999.90;;;0.00;99.90;;;;;;5095354;28;20386;-64
2024/01/28 04:05:35;;;;;;;1999.90;999.90;;;0.10;99.90;;;;;;5107442;28;20449;-64
2024/01/28 04:08:03;;;;;;;1999.90;999.90;;;0.50;99.90;;;;;;5115777;28;20424;-64
2024/01/28 04:10:29;;;;;;;1999.90;999.90;;;0.20;99.90;;;;;;5088601;28;20414;-65
2024/01/28 04:12:56;;;;;;;1999.90;999.90;;;0.20;99.90;;;;;;5083241;28;20956;-64
2024/01/28 04:15:22;;;;;;;1999.90;999.90;;;0.00;99.90;;;;;;5087537;28;20449;-65
2024/01/28 04:17:49;;;;;;;1999.90;999.90;;;0.00;99.90;;;;;;5102105;28;20401;-64
2024/01/28 04:20:16;;;;;;;1999.90;999.90;;;-0.10;99.90;;;;;;5082408;28;20955;-64
2024/01/28 04:22:42;;;;;;;1999.90;999.90;;;-0.20;99.90;;;;;;5075257;28;20447;-65
2024/01/28 04:25:10;;;;;;;1999.90;999.90;;;-0.10;99.90;;;;;;5081300;28;20779;-65
2024/01/28 04:27:37;;;;;;;1999.90;999.90;;;-0.10;99.90;;;;;;5094905;28;20426;-65
2024/01/28 04:30:05;;;;;;;1999.90;999.90;;;-0.10;99.90;;;;;;5089873;28;20414;-64
2024/01/28 04:32:32;;;;;;;1999.90;999.90;;;0.10;99.90;;;;;;5083220;28;20463;-65
2024/01/28 04:34:58;;;;;;;1999.90;999.90;;;0.10;99.90;;;;;;5077825;28;20481;-65
2024/01/28 04:37:26;;;;;;;1999.90;999.90;;;0.20;99.90;;;;;;5091025;28;20404;-65
2024/01/28 04:39:53;;;;;;;1999.90;999.90;;;0.10;99.90;;;;;;5083649;28;20410;-64
2024/01/28 04:42:22;;;;;;;1999.90;999.90;;;0.00;99.90;;;;;;5083529;28;20445;-65
2024/01/28 04:44:49;;;;;;;1999.90;999.90;;;-0.10;99.90;;;;;;5085162;28;20445;-65
2024/01/28 04:47:16;;;;;;;1999.90;999.90;;;-0.10;99.90;;;;;;5093102;28;20842;-63
2024/01/28 04:49:43;;;;;;;1999.90;999.90;;;-0.10;99.90;;;;;;5095484;28;20400;-65
2024/01/28 04:52:09;;;;;;;1999.90;999.90;;;-0.10;99.90;;;;;;5085353;28;20413;-65
2024/01/28 04:54:36;;;;;;;1999.90;999.90;;;-0.20;99.90;;;;;;5085237;28;20417;-63
2024/01/28 04:57:03;;;;;;;1999.90;999.90;;;-0.20;99.90;;;;;;5098085;28;20441;-65
2024/01/28 04:59:31;;;;;;;1999.90;999.90;;;-0.10;99.90;;;;;;5088728;28;21042;-65
2024/01/28 05:01:57;;;;;;;1999.90;999.90;;;-0.10;99.90;;;;;;5072768;28;20399;-62
2024/01/28 05:04:24;;;;;;;1999.90;999.90;;;-0.10;99.90;;;;;;5082892;28;20410;-65
2024/01/28 05:06:50;;;;;;;1999.90;999.90;;;-0.10;99.90;;;;;;5093508;28;20918;-65
2024/01/28 05:09:17;;;;;;;1999.90;999.90;;;-0.10;99.90;;;;;;5093054;28;20487;-64
2024/01/28 05:11:44;;;;;;;1999.90;999.90;;;-0.10;99.90;;;;;;5103915;28;20461;-65
2024/01/28 05:14:11;;;;;;;1999.90;999.90;;;-0.20;99.90;;;;;;5084552;28;20888;-64
2024/01/28 05:16:39;;;;;;;1999.90;999.90;;;-0.30;99.90;;;;;;5086961;28;20425;-65
2024/01/28 05:19:07;;;;;;;1999.90;999.90;;;-0.40;99.90;;;;;;5091564;28;20807;-65
2024/01/28 05:21:34;;;;;;;1999.90;999.90;;;-0.40;99.90;;;;;;5084832;28;20502;-65
2024/01/28 05:24:01;;;;;;;1999.90;999.90;;;-0.40;99.90;;;;;;5092025;28;20853;-66
2024/01/28 05:26:27;;;;;;;1999.90;999.90;;;-0.40;99.90;;;;;;5111652;28;20444;-67
2024/01/28 05:28:54;;;;;;;1999.90;999.90;;;-0.40;99.90;;;;;;5119625;28;20469;-64
2024/01/28 05:31:21;;;;;;;1999.90;999.90;;;0.30;99.90;;;;;;5100200;28;20499;-65
2024/01/28 05:33:49;;;;;;;1999.90;999.90;;;-0.30;99.90;;;;;;5108930;28;20406;-65
2024/01/28 05:36:16;;;;;;;1999.90;999.90;;;-0.20;99.90;;;;;;5097685;28;20424;-64
2024/01/28 05:38:44;;;;;;;1999.90;999.90;;;-0.20;99.90;;;;;;5102307;28;20494;-64
2024/01/28 05:41:11;;;;;;;1999.90;999.90;;;-0.30;99.90;;;;;;5078715;28;20415;-65
2024/01/28 05:43:37;;;;;;;1999.90;999.90;;;-0.30;99.90;;;;;;5083360;28;20413;-64
2024/01/28 05:46:05;;;;;;;1999.90;999.90;;;-0.40;99.90;;;;;;5093049;28;20437;-65
2024/01/28 05:48:32;;;;;;;1999.90;999.90;;;-0.40;99.90;;;;;;5093490;28;20452;-64
2024/01/28 05:51:00;;;;;;;1999.90;999.90;;;-0.40;99.90;;;;;;5093461;28;20475;-65
2024/01/28 05:53:26;;;;;;;1999.90;999.90;;;-0.40;99.90;;;;;;5077374;28;20964;-65
2024/01/28 05:55:53;;;;;;;1999.90;999.90;;;-0.40;99.90;;;;;;5079325;28;20426;-64
2024/01/28 05:58:21;;;;;;;1999.90;999.90;;;-0.30;99.90;;;;;;5096352;28;20402;-65
2024/01/28 06:00:47;;;;;;;1999.90;999.90;;;-0.40;99.90;;;;;;5091037;28;20410;-62
2024/01/28 06:03:14;;;;;;;1999.90;999.90;;;-0.40;99.90;;;;;;5090573;28;21054;-64
2024/01/28 06:05:41;;;;;;;1999.90;999.90;;;-0.50;99.90;;;;;;5091805;28;20427;-65
2024/01/28 06:08:09;;;;;;;1999.90;999.90;;;-0.10;99.90;;;;;;5106856;28;20452;-65
2024/01/28 06:10:36;;;;;;;1999.90;999.90;;;-0.30;99.90;;;;;;5090790;28;20438;-65
2024/01/28 06:13:02;;;;;;;1999.90;999.90;;;-0.30;99.90;;;;;;5095288;28;20884;-64
2024/01/28 06:15:29;;;;;;;1999.90;999.90;;;-0.40;99.90;;;;;;5091866;28;20463;-65
2024/01/28 06:17:56;;;;;;;1999.90;999.90;;;-0.50;99.90;;;;;;5086533;28;20550;-64
2024/01/28 06:20:23;;;;;;;1999.90;999.90;;;-0.60;99.90;;;;;;5089203;28;20946;-64
2024/01/28 06:22:50;;;;;;;1999.90;999.90;;;-0.50;99.90;;;;;;5102716;28;20410;-63
2024/01/28 06:25:18;;;;;;;1999.90;999.90;;;-0.60;99.90;;;;;;5107044;28;20412;-64
2024/01/28 06:27:45;;;;;;;1999.90;999.90;;;-0.60;99.90;;;;;;5088261;28;20408;-65
2024/01/28 06:30:13;;;;;;;1999.90;999.90;;;-0.60;99.90;;;;;;5096519;28;20420;-64
2024/01/28 06:32:39;;;;;;;1999.90;999.90;;;-0.50;99.90;;;;;;5089638;28;20410;-64
2024/01/28 06:35:07;;;;;;;1999.90;999.90;;;-0.20;99.90;;;;;;5091727;28;20414;-64
2024/01/28 06:37:33;;;;;;;1999.90;999.90;;;-0.40;99.90;;;;;;5087650;28;20406;-64
2024/01/28 06:40:00;;;;;;;1999.90;999.90;;;-0.40;99.90;;;;;;5090584;28;20436;-64
2024/01/28 06:42:31;;;;;;;1999.90;999.90;;;-0.10;99.90;;;;;;5094865;28;20417;-64
2024/01/28 06:44:59;;;;;;;1999.90;999.90;;;-0.50;99.90;;;;;;5092225;28;20489;-62
2024/01/28 06:47:25;;;;;;;1999.90;999.90;;;-0.60;99.90;;;;;;5092182;28;20422;-65
2024/01/28 06:49:52;;;;;;;1999.90;999.90;;;-0.30;99.90;;;;;;5087874;28;20434;-64
2024/01/28 06:52:19;;;;;;;1999.90;999.90;;;-0.60;99.90;;;;;;5092708;28;20411;-64
2024/01/28 06:54:46;;;;;;;1999.90;999.90;;;-0.60;99.90;;;;;;5090920;28;20414;-64
2024/01/28 06:57:12;;;;;;;1999.90;999.90;;;-0.70;99.90;;;;;;5092095;28;20410;-64
2024/01/28 06:59:43;;;;;;;1999.90;999.90;;;-0.80;99.90;;;;;;5085778;28;20440;-65
2024/01/28 07:02:11;;;;;;;1999.90;999.90;;;-0.60;99.90;;;;;;5099307;28;20406;-64
2024/01/28 07:04:38;;;;;;;1999.90;999.90;;;-0.10;99.90;;;;;;5091114;28;20410;-63
2024/01/28 07:07:04;;;;;;;1999.90;999.90;;;-0.70;99.90;;;;;;5091096;28;20418;-64
2024/01/28 07:09:31;;;;;;;1999.90;999.90;;;-0.70;99.90;;;;;;5083033;28;20528;-64
2024/01/28 07:11:58;;;;;;;1999.90;999.90;;;-0.30;99.90;;;;;;5093661;28;20412;-64
2024/01/28 07:14:25;;;;;;;1999.90;999.90;;;-0.60;99.90;;;;;;5092527;28;20413;-63
2024/01/28 07:16:53;;;;;;;1999.90;999.90;;;-0.70;99.90;;;;;;5091131;28;20413;-64
2024/01/28 07:19:20;;;;;;;1999.90;999.90;;;-0.70;99.90;;;;;;5088875;28;20751;-63
2024/01/28 07:21:47;;;;;;;1999.90;999.90;;;-0.40;99.90;;;;;;5097092;28;20475;-63
2024/01/28 07:24:14;;;;;;;1999.90;999.90;;;-0.50;99.90;;;;;;5093777;28;20413;-65
2024/01/28 07:26:43;;;;;;;1999.90;999.90;;;-0.20;99.90;;;;;;5091098;28;20453;-62
2024/01/28 07:29:09;;;;;;;1999.90;999.90;;;-0.60;99.90;;;;;;5087616;28;20423;-65
2024/01/28 07:31:36;;;;;;;1999.90;999.90;;;-0.60;99.90;;;;;;5084953;28;20433;-62
2024/01/28 07:34:04;;;;;;;1999.90;999.90;;;-0.50;99.90;;;;;;5090691;28;20784;-64
2024/01/28 07:36:31;;;;;;;1999.90;999.90;;;-0.60;99.90;;;;;;5090819;28;20406;-64
2024/01/28 07:38:57;;;;;;;1999.90;999.90;;;-0.50;99.90;;;;;;5086244;28;20404;-64
2024/01/28 07:41:24;;;;;;;1999.90;999.90;;;0.00;99.90;;;;;;5090310;28;20434;-64
2024/01/28 07:43:51;;;;;;;1999.90;999.90;;;0.00;99.90;;;;;;5090958;28;20410;-64
2024/01/28 07:46:18;;;;;;;1999.90;999.90;;;-0.20;99.90;;;;;;5090648;28;20500;-64
2024/01/28 07:48:45;;;;;;;1999.90;999.90;;;-0.10;99.90;;;;;;5090283;28;20430;-65
2024/01/28 07:51:13;;;;;;;1999.90;999.90;;;-0.10;99.90;;;;;;5081449;28;20912;-64
2024/01/28 07:53:39;;;;;;;1999.90;999.90;;;0.00;99.90;;;;;;5086974;28;20410;-63
2024/01/28 07:56:06;;;;;;;1999.90;999.90;;;0.10;99.90;;;;;;5081730;28;20473;-64
2024/01/28 07:58:33;;;;;;;1999.90;999.90;;;0.20;99.90;;;;;;5080042;28;20905;-64
2024/01/28 08:01:01;;;;;;;1999.90;999.90;;;0.30;99.90;;;;;;5090361;28;20435;-63
2024/01/28 08:03:27;;;;;;;1999.90;999.90;;;0.40;99.90;;;;;;5087334;28;20969;-64
2024/01/28 08:05:54;;;;;;;1999.90;999.90;;;0.40;99.90;;;;;;5093259;28;20410;-64
2024/01/28 08:08:22;;;;;;;1999.90;999.90;;;0.40;99.90;;;;;;5090697;28;20496;-64
2024/01/28 08:10:49;;;;;;;1999.90;999.90;;;0.40;99.90;;;;;;5087565;28;20430;-64
2024/01/28 08:13:16;;;;;;;1999.90;999.90;;;0.70;99.90;;;;;;5091378;28;20488;-64
2024/01/28 08:15:43;;;;;;;1999.90;999.90;;;0.70;99.90;;;;;;5097638;28;20417;-65
2024/01/28 08:18:11;;;;;;;1999.90;999.90;;;0.70;99.90;;;;;;5093007;28;20463;-65
2024/01/28 08:20:38;;;;;;;1999.90;999.90;;;0.90;99.90;;;;;;5082754;28;20947;-63
2024/01/28 08:23:05;;;;;;;1999.90;999.90;;;1.00;99.90;;;;;;5085091;28;20529;-63
2024/01/28 08:25:33;;;;;;;1999.90;999.90;;;1.20;99.90;;;;;;5080312;28;20421;-65
2024/01/28 08:28:00;;;;;;;1999.90;999.90;;;1.60;99.90;;;;;;5082695;28;20911;-63
2024/01/28 08:30:26;;;;;;;1999.90;999.90;;;1.60;99.90;;;;;;5086367;28;20448;-65
2024/01/28 08:32:53;;;;;;;1999.90;999.90;;;1.60;99.90;;;;;;5084572;28;20434;-65
2024/01/28 08:35:21;;;;;;;1999.90;999.90;;;1.90;99.90;;;;;;5085619;28;20405;-63
2024/01/28 08:37:48;;;;;;;1999.90;999.90;;;1.90;99.90;;;;;;5081936;28;20417;-63
2024/01/28 08:40:14;;;;;;;1999.90;999.90;;;2.00;99.90;;;;;;5082255;28;20453;-66
2024/01/28 08:42:42;;;;;;;1999.90;999.90;;;2.10;99.90;;;;;;5090147;28;20429;-66
2024/01/28 08:45:10;;;;;;;1999.90;999.90;;;2.10;99.90;;;;;;5087599;28;20414;-67
2024/01/28 08:47:36;;;;;;;1999.90;999.90;;;2.40;99.90;;;;;;5085036;28;20839;-68
2024/01/28 08:50:04;;;;;;;1999.90;999.90;;;2.50;99.90;;;;;;5075787;28;20465;-63
2024/01/28 08:52:30;;;;;;;1999.90;999.90;;;2.50;99.90;;;;;;5090396;28;20479;-65
2024/01/28 08:54:57;;;;;;;1999.90;999.90;;;2.70;99.90;;;;;;5084806;28;20406;-65
2024/01/28 08:57:24;;;;;;;1999.90;999.90;;;3.10;99.90;;;;;;5082898;28;20415;-64
2024/01/28 08:59:52;;;;;;;1999.90;999.90;;;3.30;99.90;;;;;;5089201;28;20417;-65
2024/01/28 09:02:19;;;;;;;1999.90;999.90;;;3.40;99.90;;;;;;5094121;28;20408;-65
2024/01/28 09:04:45;;;;;;;1999.90;999.90;;;3.60;99.90;;;;;;5089754;28;20468;-65
2024/01/28 09:07:12;;;;;;;1999.90;999.90;;;3.80;99.90;;;;;;5091522;28;20405;-66
2024/01/28 09:09:39;;;;;;;1999.90;999.90;;;4.00;99.90;;;;;;5094075;28;20422;-66
2024/01/28 09:12:06;;;;;;;1999.90;999.90;;;4.30;99.90;;;;;;5089786;28;20803;-66
2024/01/28 09:14:33;;;;;;;1999.90;999.90;;;4.60;99.90;;;;;;5085178;28;20429;-65
2024/01/28 09:17:01;;;;;;;1999.90;999.90;;;4.60;99.90;;;;;;5090365;28;20466;-65
2024/01/28 09:19:28;;;;;;;1999.90;999.90;;;4.90;99.90;;;;;;5093408;28;20428;-65
2024/01/28 09:21:55;;;;;;;1999.90;999.90;;;5.00;99.90;;;;;;5098400;28;20415;-66
2024/01/28 09:24:22;;;;;;;1999.90;999.90;;;5.20;99.90;;;;;;5094084;28;20424;-65
2024/01/28 09:26:49;;;;;;;1999.90;999.90;;;5.20;99.90;;;;;;5095572;28;20861;-65
2024/01/28 09:29:15;;;;;;;1999.90;999.90;;;5.10;99.90;;;;;;5087658;28;20435;-65
2024/01/28 09:31:45;;;;;;;1999.90;999.90;;;4.80;99.90;;;;;;5095493;28;20418;-65
2024/01/28 09:34:13;;;;;;;1999.90;999.90;;;4.70;99.90;;;;;;5092997;28;20928;-66
2024/01/28 09:36:39;;;;;;;1999.90;999.90;;;4.60;99.90;;;;;;5092005;28;20417;-67
2024/01/28 09:39:06;;;;;;;1999.90;999.90;;;4.80;99.90;;;;;;5091500;28;20427;-66
2024/01/28 09:41:43;;;;;;;1999.90;999.90;;;4.80;99.90;;;;;;5087281;28;20403;-66
2024/01/28 09:44:11;;;;;;;1999.90;999.90;;;4.90;99.90;;;;;;5094296;28;20590;-65
2024/01/28 09:46:38;;;;;;;1999.90;999.90;;;4.90;99.90;;;;;;5095995;28;20953;-66
2024/01/28 09:49:05;;;;;;;1999.90;999.90;;;4.90;99.90;;;;;;5090833;28;20422;-65
2024/01/28 09:51:33;;;;;;;1999.90;999.90;;;4.70;99.90;;;;;;5092196;28;20507;-65
2024/01/28 09:54:00;;;;;;;1999.90;999.90;;;5.00;99.90;;;;;;5087990;28;20412;-66
2024/01/28 09:56:26;;;;;;;1999.90;999.90;;;4.90;99.90;;;;;;5091573;28;20475;-65
2024/01/28 09:58:54;;;;;;;1999.90;999.90;;;5.00;99.90;;;;;;5087657;28;20458;-64
2024/01/28 10:01:24;;;;;;;1999.90;999.90;;;5.10;99.90;;;;;;5086186;28;20437;-64
2024/01/28 10:03:51;;;;;;;1999.90;999.90;;;5.00;99.90;;;;;;5085118;28;20452;-65
2024/01/28 10:06:18;;;;;;;1999.90;999.90;;;5.00;99.90;;;;;;5084381;28;20414;-65
2024/01/28 10:08:47;;;;;;;1999.90;999.90;;;4.90;99.90;;;;;;5080134;28;20435;-65
2024/01/28 10:11:15;;;;;;;1999.90;999.90;;;4.90;99.90;;;;;;5089658;28;20406;-66
2024/01/28 10:13:42;;;;;;;1999.90;999.90;;;4.80;99.90;;;;;;5086592;28;20418;-65
2024/01/28 10:16:08;;;;;;;1999.90;999.90;;;5.10;99.90;;;;;;5089274;28;21005;-66
2024/01/28 10:18:35;;;;;;;1999.90;999.90;;;5.20;99.90;;;;;;5086855;28;20440;-67
2024/01/28 10:21:02;;;;;;;1999.90;999.90;;;5.50;99.90;;;;;;5087744;28;20461;-66
2024/01/28 10:23:29;;;;;;;1999.90;999.90;;;5.80;99.90;;;;;;5092310;28;20410;-66
2024/01/28 10:26:00;;;;;;;1999.90;999.90;;;5.70;99.90;;;;;;5089993;28;20517;-65
2024/01/28 10:28:29;;;;;;;1999.90;999.90;;;5.50;99.90;;;;;;5096773;28;20448;-65
2024/01/28 10:30:56;;;;;;;1999.90;999.90;;;5.50;99.90;;;;;;5094655;28;20421;-66
2024/01/28 10:33:23;;;;;;;1999.90;999.90;;;5.40;99.90;;;;;;5090162;28;20414;-65
2024/01/28 10:35:49;;;;;;;1999.90;999.90;;;5.30;99.90;;;;;;5081823;28;20430;-65
2024/01/28 10:38:19;;;;;;;1999.90;999.90;;;5.30;99.90;;;;;;5096544;28;20439;-64
2024/01/28 10:40:47;;;;;;;1999.90;999.90;;;5.40;99.90;;;;;;5090779;28;20417;-65
2024/01/28 10:43:17;;;;;;;1999.90;999.90;;;5.60;99.90;;;;;;5092451;28;20404;-65
2024/01/28 10:45:49;;;;;;;1999.90;999.90;;;5.70;99.90;;;;;;5089443;28;20418;-64
2024/01/28 10:48:18;;;;;;;1999.90;999.90;;;5.90;99.90;;;;;;5091621;28;20417;-63
2024/01/28 10:50:47;;;;;;;1999.90;999.90;;;6.10;99.90;;;;;;5085635;28;20455;-64
2024/01/28 10:53:15;;;;;;;1999.90;999.90;;;6.30;99.90;;;;;;5093228;28;20458;-62
2024/01/28 10:55:42;;;;;;;1999.90;999.90;;;6.40;99.90;;;;;;5094865;28;20410;-65
2024/01/28 10:58:10;;;;;;;1999.90;999.90;;;6.60;99.90;;;;;;5091518;28;20414;-63
2024/01/28 11:00:39;;;;;;;1999.90;999.90;;;6.60;99.90;;;;;;5088645;28;20564;-64
2024/01/28 11:03:07;;;;;;;1999.90;999.90;;;6.80;99.90;;;;;;5087446;28;20419;-65
2024/01/28 11:05:35;;;;;;;1999.90;999.90;;;6.90;99.90;;;;;;5088638;28;20455;-64
2024/01/28 11:08:01;;;;;;;1999.90;999.90;;;6.70;99.90;;;;;;5090645;28;20433;-65
2024/01/28 11:10:28;;;;;;;1999.90;999.90;;;6.90;99.90;;;;;;5090520;28;20481;-64
2024/01/28 11:12:56;;;;;;;1999.90;999.90;;;7.10;99.90;;;;;;5081613;28;20465;-63
2024/01/28 11:15:23;;;;;;;1999.90;999.90;;;7.40;99.90;;;;;;5086028;28;20502;-65
2024/01/28 11:17:51;;;;;;;1999.90;999.90;;;7.40;99.90;;;;;;5088047;28;20434;-65
2024/01/28 11:20:27;;;;;;;1999.90;999.90;;;7.40;99.90;;;;;;5090376;28;20424;-64
2024/01/28 11:22:55;;;;;;;1999.90;999.90;;;7.50;99.90;;;;;;5081936;28;20882;-62
2024/01/28 11:25:24;;;;;;;1999.90;999.90;;;7.50;99.90;;;;;;5085413;28;20971;-64
2024/01/28 11:27:51;;;;;;;1999.90;999.90;;;7.60;99.90;;;;;;5093297;28;20505;-62
2024/01/28 11:30:21;;;;;;;1999.90;999.90;;;7.60;99.90;;;;;;5089783;28;20426;-64
2024/01/28 11:32:48;;;;;;;1999.90;999.90;;;7.70;99.90;;;;;;5090790;28;20414;-64
2024/01/28 11:35:16;;;;;;;1999.90;999.90;;;7.70;99.90;;;;;;5085683;28;20434;-64
2024/01/28 11:37:50;;;;;;;1999.90;999.90;;;7.70;99.90;;;;;;5093033;28;20414;-64
2024/01/28 11:40:24;;;;;;;1999.90;999.90;;;8.00;99.90;;;;;;5090364;28;20413;-64
2024/01/28 11:42:53;;;;;;;1999.90;999.90;;;8.20;99.90;;;;;;5087295;28;20901;-62
2024/01/28 11:45:20;;;;;;;1999.90;999.90;;;8.20;99.90;;;;;;5085414;28;20409;-65
2024/01/28 11:47:47;;;;;;;1999.90;999.90;;;8.00;99.90;;;;;;5085248;28;20406;-65
2024/01/28 11:50:15;;;;;;;1999.90;999.90;;;7.80;99.90;;;;;;5087756;28;20422;-64
2024/01/28 11:52:42;;;;;;;1999.90;999.90;;;7.80;99.90;;;;;;5088757;28;20835;-66
2024/01/28 11:55:13;;;;;;;1999.90;999.90;;;8.00;99.90;;;;;;5092840;28;20393;-64
2024/01/28 11:57:41;;;;;;;1999.90;999.90;;;8.10;99.90;;;;;;5084146;28;20642;-65
2024/01/28 12:00:09;;;;;;;1999.90;999.90;;;8.10;99.90;;;;;;5083654;28;20466;-66
2024/01/28 12:02:36;;;;;;;1999.90;999.90;;;8.00;99.90;;;;;;5089595;28;20502;-66
2024/01/28 12:05:03;;;;;;;1999.90;999.90;;;8.00;99.90;;;;;;5080048;28;20844;-66
2024/01/28 12:07:32;;;;;;;1999.90;999.90;;;8.00;99.90;;;;;;5091810;28;20420;-66